Time;durP1;ratioP1;P1;durP2;ratioP2;P2;SDS_P1;SDS_P2;PMS_P1;PMS_P2;Temp;Humidity;BMP_temperature;BMP_pressure;BME280_temperature;BME280_humidity;BME280_pressure;Samples;Min_cycle;Max_cycle;Signal;HPM_P1;HPM_P2
2023/06/20 00:00:32;;;;;;;19.98;13.48;;;;;;;16.53;100.00;93080.97;2548596;23;20005;-84
2023/06/20 00:01:36;;;;;;;18.02;13.50;;;;;;;16.53;100.00;93079.00;2548064;23;20442;-86
2023/06/20 00:02:42;;;;;;;17.35;12.88;;;;;;;16.51;100.00;93072.59;2547229;23;20444;-83
2023/06/20 00:03:50;;;;;;;23.13;13.75;;;;;;;16.42;100.00;93073.34;2549071;23;20001;-86
2023/06/20 00:04:56;;;;;;;19.77;13.55;;;;;;;16.36;100.00;93073.19;2550701;23;20013;-85
2023/06/20 00:06:00;;;;;;;23.98;12.95;;;;;;;16.42;100.00;93073.34;2549683;23;20077;-86
2023/06/20 00:07:06;;;;;;;19.27;13.27;;;;;;;16.44;100.00;93068.25;2549107;23;20449;-83
2023/06/20 00:08:13;;;;;;;21.83;14.43;;;;;;;16.39;100.00;93062.72;2550163;23;20085;-85
2023/06/20 00:09:22;;;;;;;24.02;14.57;;;;;;;16.28;100.00;93061.22;2549527;23;20032;-87
2023/06/20 00:10:30;;;;;;;23.10;13.95;;;;;;;16.36;100.00;93064.38;2536455;23;20029;-84
2023/06/20 00:11:37;;;;;;;26.02;14.93;;;;;;;16.27;100.00;93065.13;2537022;23;20408;-84
2023/06/20 00:12:57;;;;;;;26.35;16.00;;;;;;;16.29;100.00;93067.41;2547152;23;20002;-85
2023/06/20 00:14:04;;;;;;;20.90;14.10;;;;;;;16.30;100.00;93058.09;2558639;23;20015;-85
2023/06/20 00:15:12;;;;;;;17.52;13.70;;;;;;;16.39;100.00;93054.63;2558368;23;19997;-83
2023/06/20 00:16:20;;;;;;;21.70;14.90;;;;;;;16.38;100.00;93050.44;2546160;23;20052;-85
2023/06/20 00:17:27;;;;;;;19.73;13.52;;;;;;;16.40;100.00;93051.47;2546783;23;20426;-83
2023/06/20 00:18:35;;;;;;;23.17;14.45;;;;;;;16.36;100.00;93046.22;2550340;23;20006;-85
2023/06/20 00:19:40;;;;;;;39.83;14.60;;;;;;;16.35;100.00;93054.78;2558937;23;20088;-83
2023/06/20 00:20:48;;;;;;;22.50;14.35;;;;;;;16.32;100.00;93052.97;2547508;23;20009;-84
2023/06/20 00:21:56;;;;;;;18.08;13.57;;;;;;;16.41;100.00;93057.59;2546468;23;20435;-83
2023/06/20 00:23:03;;;;;;;18.33;14.07;;;;;;;16.37;100.00;93057.75;2561578;23;20584;-84
2023/06/20 00:24:10;;;;;;;22.38;14.70;;;;;;;16.36;100.00;93064.38;2557445;23;20005;-82
2023/06/20 00:25:18;;;;;;;25.10;14.30;;;;;;;16.39;100.00;93065.41;2536813;23;20009;-82
2023/06/20 00:26:25;;;;;;;27.02;13.82;;;;;;;16.37;100.00;93052.38;2533111;23;20060;-86
2023/06/20 00:27:33;;;;;;;21.20;13.57;;;;;;;16.29;100.00;93054.66;2548779;23;20009;-84
2023/06/20 00:28:39;;;;;;;22.80;13.82;;;;;;;16.34;100.00;93056.00;2545955;23;20416;-86
2023/06/20 00:29:47;;;;;;;21.50;13.27;;;;;;;16.40;100.00;93066.91;2535652;23;20006;-85
2023/06/20 00:30:53;;;;;;;18.77;13.18;;;;;;;16.39;100.00;93066.16;2536529;23;20002;-85
2023/06/20 00:31:59;;;;;;;35.72;13.80;;;;;;;16.36;100.00;93057.03;2548216;23;19997;-84
2023/06/20 00:33:10;;;;;;;21.85;13.55;;;;;;;16.37;100.00;93060.47;2546344;23;20083;-84
2023/06/20 00:34:15;;;;;;;23.58;13.13;;;;;;;16.36;100.00;93048.19;2526565;23;20007;-84
2023/06/20 00:35:21;;;;;;;22.38;13.77;;;;;;;16.34;100.00;93045.19;2535904;23;20454;-83
2023/06/20 00:36:30;;;;;;;23.45;13.80;;;;;;;16.31;100.00;93036.06;2559744;23;20009;-83
2023/06/20 00:37:38;;;;;;;25.60;13.93;;;;;;;16.37;100.00;93036.19;2559336;23;20004;-85
2023/06/20 00:38:48;;;;;;;18.95;13.85;;;;;;;16.33;100.00;93032.88;2547710;23;20088;-85
2023/06/20 00:39:52;;;;;;;18.38;13.95;;;;;;;16.35;100.00;93027.81;2535866;23;20009;-85
2023/06/20 00:41:00;;;;;;;17.35;12.55;;;;;;;16.39;100.00;93035.75;2535942;23;20029;-87
2023/06/20 00:42:06;;;;;;;20.27;13.02;;;;;;;16.28;100.00;93036.22;2548016;23;20014;-86
2023/06/20 00:43:13;;;;;;;17.88;13.65;;;;;;;16.41;100.00;93033.31;2547714;23;20036;-83
2023/06/20 00:44:21;;;;;;;15.02;12.52;;;;;;;16.50;100.00;93030.59;2546838;23;20002;-84
2023/06/20 00:45:33;;;;;;;19.48;13.25;;;;;;;16.51;100.00;93030.16;2536902;23;20421;-85
2023/06/20 00:46:45;;;;;;;21.90;12.90;;;;;;;16.44;100.00;93027.78;2547899;23;20002;-86
2023/06/20 00:47:54;;;;;;;19.50;12.95;;;;;;;16.39;100.00;93022.25;2548298;23;20009;-83
2023/06/20 00:49:07;;;;;;;19.30;13.48;;;;;;;16.30;100.00;93021.06;2535253;23;20061;-87
2023/06/20 00:50:15;;;;;;;15.07;12.80;;;;;;;16.42;100.00;93016.69;2548125;23;20016;-85
2023/06/20 00:51:24;;;;;;;18.98;12.93;;;;;;;16.39;100.00;93016.88;2546549;23;20552;-88
2023/06/20 00:52:33;;;;;;;17.70;13.45;;;;;;;16.34;100.00;93016.28;2547223;23;20001;-84
2023/06/20 00:53:47;;;;;;;17.17;12.90;;;;;;;16.35;100.00;93012.38;2545573;23;20005;-85
2023/06/20 00:54:57;;;;;;;16.45;12.30;;;;;;;16.32;100.00;93007.88;2525471;23;20006;-86
2023/06/20 00:56:04;;;;;;;17.05;12.38;;;;;;;16.42;100.00;93005.91;2537105;23;20057;-83
2023/06/20 00:57:26;;;;;;;18.92;12.23;;;;;;;16.35;100.00;93006.22;2534518;23;20009;-84
2023/06/20 00:58:35;;;;;;;20.83;14.05;;;;;;;16.32;100.00;93007.88;2550631;23;20009;-84
2023/06/20 00:59:45;;;;;;;21.42;12.95;;;;;;;16.32;100.00;93007.13;2556596;23;20004;-83
2023/06/20 01:00:53;;;;;;;15.38;11.40;;;;;;;16.33;100.00;93003.22;2548956;23;20001;-83
2023/06/20 01:02:04;;;;;;;21.80;12.23;;;;;;;16.25;100.00;93008.22;2557680;23;20491;-85
2023/06/20 01:03:18;;;;;;;19.70;11.65;;;;;;;16.32;100.00;93001.72;2558471;23;20807;-84
2023/06/20 01:04:24;;;;;;;20.77;12.30;;;;;;;16.28;100.00;93004.59;2558197;23;20411;-86
2023/06/20 01:05:29;;;;;;;16.65;11.98;;;;;;;16.27;100.00;93005.06;2546783;23;20012;-86
2023/06/20 01:06:43;;;;;;;16.98;12.05;;;;;;;16.27;100.00;93011.19;2544827;23;20016;-87
2023/06/20 01:08:14;;;;;;;13.98;11.60;;;;;;;16.23;100.00;93007.16;2548673;23;20237;-83
2023/06/20 01:09:34;;;;;;;19.98;11.38;;;;;;;16.31;100.00;93005.63;2552548;23;20016;-86
2023/06/20 01:11:05;;;;;;;18.33;11.77;;;;;;;16.22;100.00;93001.03;2552264;23;20005;-84
2023/06/20 01:12:46;;;;;;;14.38;10.75;;;;;;;16.47;100.00;92991.78;2563932;23;20343;-85
2023/06/20 01:14:02;;;;;;;15.75;11.27;;;;;;;16.33;100.00;92987.81;2545373;23;20036;-83
2023/06/20 01:15:25;;;;;;;19.63;11.50;;;;;;;16.28;100.00;92984.97;2539289;23;20080;-87
2023/06/20 01:17:07;;;;;;;14.82;11.07;;;;;;;16.36;100.00;92986.13;2553482;23;20041;-86
2023/06/20 01:18:25;;;;;;;16.77;10.45;;;;;;;16.31;100.00;92982.09;2574265;23;20008;-87
2023/06/20 01:20:09;;;;;;;17.38;11.70;;;;;;;16.28;100.00;92982.25;2554084;23;20433;-87
2023/06/20 01:21:23;;;;;;;13.88;10.85;;;;;;;16.38;100.00;92981.03;2542283;23;20001;-85
2023/06/20 01:22:48;;;;;;;14.82;11.35;;;;;;;16.31;100.00;92984.06;2544812;23;20016;-84
2023/06/20 01:24:16;;;;;;;14.93;11.23;;;;;;;16.27;100.00;92978.81;2553819;23;20012;-87
2023/06/20 01:25:52;;;;;;;13.25;10.15;;;;;;;16.29;100.00;92975.69;2548371;23;20045;-84
2023/06/20 01:27:29;;;;;;;16.75;11.18;;;;;;;16.12;100.00;92975.28;2528764;23;20009;-84
2023/06/20 01:28:58;;;;;;;16.77;11.05;;;;;;;16.10;100.00;92970.34;2547839;23;20004;-87
2023/06/20 01:30:20;;;;;;;15.70;10.43;;;;;;;16.15;100.00;92960.88;2539984;23;20408;-87
2023/06/20 01:31:34;;;;;;;17.05;11.40;;;;;;;16.05;100.00;92960.16;2542019;23;20415;-87
2023/06/20 01:32:48;;;;;;;18.13;10.88;;;;;;;16.00;100.00;92952.69;2548621;23;20006;-85
2023/06/20 01:34:22;;;;;;;15.73;11.02;;;;;;;15.96;100.00;92951.38;2560687;23;20001;-87
2023/06/20 01:35:37;;;;;;;13.00;10.50;;;;;;;16.00;100.00;92947.31;2545678;23;20032;-88
2023/06/20 01:36:52;;;;;;;17.63;11.15;;;;;;;15.96;100.00;92951.38;2548959;23;20013;-86
2023/06/20 01:38:09;;;;;;;14.70;10.68;;;;;;;16.04;100.00;92947.16;2548802;23;20005;-84
2023/06/20 01:39:33;;;;;;;19.15;10.07;;;;;;;16.01;100.00;92943.41;2549129;23;20535;-86
2023/06/20 01:40:44;;;;;;;12.73;9.88;;;;;;;16.10;100.00;92953.41;2538578;23;20017;-84
2023/06/20 01:41:53;;;;;;;14.00;9.57;;;;;;;16.08;100.00;92953.88;2535364;23;20014;-88
2023/06/20 01:43:20;;;;;;;11.95;10.15;;;;;;;16.18;100.00;92940.34;2547424;23;20082;-85
2023/06/20 01:44:33;;;;;;;18.05;9.75;;;;;;;16.05;100.00;92945.94;2541965;23;20045;-86
2023/06/20 01:45:48;;;;;;;11.38;9.88;;;;;;;16.14;100.00;92943.22;2538727;23;20449;-87
2023/06/20 01:46:56;;;;;;;16.98;10.32;;;;;;;16.15;100.00;92943.97;2546154;23;20001;-84
2023/06/20 01:48:06;;;;;;;12.88;10.00;;;;;;;16.10;100.00;92935.28;2549324;23;20487;-86
2023/06/20 01:49:18;;;;;;;12.63;10.23;;;;;;;16.09;100.00;92931.09;2570634;23;20367;-84
2023/06/20 01:50:46;;;;;;;12.27;10.25;;;;;;;16.00;100.00;92938.47;2568113;23;20008;-87
2023/06/20 01:51:58;;;;;;;12.68;10.10;;;;;;;16.08;100.00;92947.75;2563963;23;20474;-85
2023/06/20 01:53:17;;;;;;;11.13;10.02;;;;;;;16.10;100.00;92946.06;2557269;23;20004;-84
2023/06/20 01:54:32;;;;;;;11.30;9.07;;;;;;;16.14;100.00;92939.78;2551284;23;20367;-85
2023/06/20 01:55:41;;;;;;;15.05;9.88;;;;;;;16.02;100.00;92944.16;2537084;23;20093;-87
2023/06/20 01:56:49;;;;;;;10.40;9.20;;;;;;;16.15;100.00;92941.25;2548905;23;20005;-83
2023/06/20 01:58:16;;;;;;;17.77;10.00;;;;;;;16.04;100.00;92941.75;2557282;23;20039;-86
2023/06/20 01:59:30;;;;;;;14.23;10.35;;;;;;;15.94;100.00;92943.75;2531929;23;20071;-87
2023/06/20 02:00:40;;;;;;;16.08;10.00;;;;;;;15.87;100.00;92949.44;2539095;23;20036;-88
2023/06/20 02:01:50;;;;;;;11.77;9.65;;;;;;;15.86;100.00;92939.88;2547844;23;19997;-84
2023/06/20 02:03:00;;;;;;;;;;;;;;;15.89;100.00;92946.28;2547639;23;20032;-84
2023/06/20 02:04:12;;;;;;;10.02;8.65;;;;;;;15.84;100.00;92942.25;2535557;23;19905;-83
2023/06/20 02:05:25;;;;;;;14.60;9.80;;;;;;;15.80;100.00;92941.66;2549752;23;20384;-85
2023/06/20 02:06:36;;;;;;;11.73;9.15;;;;;;;15.79;100.00;92940.91;2557877;23;20071;-85
2023/06/20 02:07:46;;;;;;;15.95;9.85;;;;;;;15.84;100.00;92934.16;2547459;23;20017;-86
2023/06/20 02:08:53;;;;;;;;;;;;;;;15.87;100.00;92933.25;2559269;23;20061;-83
2023/06/20 02:10:00;;;;;;;11.95;9.65;;;;;;;15.83;100.00;92929.97;2558574;23;19967;-89
2023/06/20 02:11:11;;;;;;;19.92;9.55;;;;;;;15.85;100.00;92930.28;2558135;23;20012;-87
2023/06/20 02:12:20;;;;;;;10.82;9.27;;;;;;;15.92;100.00;92932.66;2557517;23;20001;-85
2023/06/20 02:13:26;;;;;;;11.10;9.75;;;;;;;15.82;100.00;92929.25;2547026;23;20077;-87
2023/06/20 02:14:34;;;;;;;13.95;10.30;;;;;;;15.79;100.00;92926.69;2546834;23;19997;-85
2023/06/20 02:15:42;;;;;;;19.75;10.23;;;;;;;15.84;100.00;92932.22;2545310;23;20110;-83
2023/06/20 02:16:52;;;;;;;13.50;10.23;;;;;;;15.80;100.00;92931.66;2536686;23;20057;-86
2023/06/20 02:18:02;;;;;;;14.65;9.68;;;;;;;15.73;100.00;92931.22;2535150;23;20042;-82
2023/06/20 02:19:11;;;;;;;11.75;9.63;;;;;;;15.72;100.00;92935.84;2549210;23;20053;-86
2023/06/20 02:21:41;;;;;;;19.75;10.02;;;;;;;15.77;100.00;92935.25;2139420;27;20181;-84
2023/06/20 02:22:55;;;;;;;15.18;9.73;;;;;;;15.76;100.00;92931.06;2121950;28;20026;-86
2023/06/20 02:24:04;;;;;;;13.50;9.48;;;;;;;15.84;100.00;92928.78;2105708;28;20617;-84
2023/06/20 02:25:14;;;;;;;14.73;10.35;;;;;;;15.77;100.00;92931.81;2103396;28;20028;-84
2023/06/20 02:26:24;;;;;;;13.93;10.07;;;;;;;15.77;100.00;92929.09;2104914;28;20026;-87
2023/06/20 02:27:37;;;;;;;19.15;10.68;;;;;;;15.71;100.00;92934.34;2114860;28;20039;-87
2023/06/20 02:28:56;;;;;;;11.60;10.10;;;;;;;15.69;100.00;92941.41;2115492;28;20019;-85
2023/06/20 02:30:06;;;;;;;16.10;10.00;;;;;;;15.65;100.00;92938.84;2109496;28;20728;-87
2023/06/20 02:31:18;;;;;;;11.10;9.40;;;;;;;15.65;100.00;92938.13;2106014;28;20138;-84
2023/06/20 02:32:26;;;;;;;12.90;9.68;;;;;;;15.59;100.00;92944.09;2103628;28;20198;-83
2023/06/20 02:33:38;;;;;;;12.32;10.02;;;;;;;15.56;100.00;92946.94;2109032;28;20015;-84
2023/06/20 02:34:47;;;;;;;15.20;10.30;;;;;;;15.50;100.00;92938.72;2111094;27;20518;-85
2023/06/20 02:35:52;;;;;;;14.07;9.82;;;;;;;15.45;100.00;92941.25;2110120;28;20024;-84
2023/06/20 02:37:00;;;;;;;17.83;10.30;;;;;;;15.52;100.00;92940.94;2118166;27;20487;-81
2023/06/20 02:38:07;;;;;;;13.13;9.88;;;;;;;15.60;100.00;92939.44;2113277;28;20694;-81
2023/06/20 02:39:15;;;;;;;12.18;10.32;;;;;;;15.50;100.00;92936.03;2106950;28;20488;-85
2023/06/20 02:40:28;;;;;;;10.98;9.73;;;;;;;15.49;100.00;92934.50;2113306;28;20024;-88
2023/06/20 02:41:33;;;;;;;11.48;10.18;;;;;;;15.41;100.00;92927.19;2108109;28;20024;-83
2023/06/20 02:42:39;;;;;;;13.05;10.27;;;;;;;15.50;100.00;92932.59;2113698;28;20028;-84
2023/06/20 02:43:45;;;;;;;12.32;10.50;;;;;;;15.62;100.00;92928.94;2104260;28;20100;-82
2023/06/20 02:44:52;;;;;;;12.48;10.40;;;;;;;15.56;100.00;92934.19;2090782;28;20025;-84
2023/06/20 02:46:14;;;;;;;11.63;9.98;;;;;;;15.56;100.00;92934.19;2098235;28;20124;-83
2023/06/20 02:47:40;;;;;;;14.32;10.50;;;;;;;15.51;100.00;92932.13;2114962;28;20118;-85
2023/06/20 02:48:53;;;;;;;13.88;10.63;;;;;;;15.36;100.00;92939.31;2111095;28;20031;-81
2023/06/20 02:50:43;;;;;;;12.55;10.48;;;;;;;15.34;100.00;92928.25;2099131;28;20035;-87
2023/06/20 02:52:27;;;;;;;15.23;10.32;;;;;;;15.31;100.00;92929.13;2111228;28;20520;-84
2023/06/20 02:54:17;;;;;;;12.95;10.13;;;;;;;15.32;100.00;92930.63;2111442;28;20036;-84
2023/06/20 02:55:54;;;;;;;11.75;10.55;;;;;;;15.22;100.00;92924.50;2108195;28;20024;-84
2023/06/20 02:57:15;;;;;;;10.77;9.77;;;;;;;15.37;100.00;92916.59;2103657;28;20093;-86
2023/06/20 02:58:27;;;;;;;15.10;9.73;;;;;;;15.34;100.00;92925.56;2102030;28;20036;-85
2023/06/20 02:59:36;;;;;;;12.52;10.07;;;;;;;15.31;100.00;92924.50;2098059;28;20167;-85
2023/06/20 03:00:46;;;;;;;13.45;11.65;;;;;;;15.15;100.00;92919.44;2098121;28;20365;-84
2023/06/20 03:02:03;;;;;;;12.90;11.07;;;;;;;15.14;100.00;92925.25;2108595;28;20024;-85
2023/06/20 03:03:49;;;;;;;12.00;10.15;;;;;;;15.20;100.00;92928.84;2115246;28;20028;-85
2023/06/20 03:04:57;;;;;;;13.35;10.25;;;;;;;15.25;100.00;92934.38;2117656;28;20039;-81
2023/06/20 03:06:06;;;;;;;15.13;11.18;;;;;;;15.19;100.00;92927.34;2106127;28;20054;-84
2023/06/20 03:07:19;;;;;;;12.98;10.82;;;;;;;15.17;100.00;92929.75;2098292;28;20458;-84
2023/06/20 03:08:32;;;;;;;15.18;10.68;;;;;;;15.21;100.00;92931.09;2106360;28;20036;-85
2023/06/20 03:09:43;;;;;;;11.68;10.48;;;;;;;15.21;100.00;92936.47;2098160;28;20078;-84
2023/06/20 03:10:58;;;;;;;11.70;10.07;;;;;;;15.22;100.00;92934.53;2106215;28;20476;-85
2023/06/20 03:12:07;;;;;;;17.30;10.18;;;;;;;15.33;100.00;92934.84;2102342;28;20032;-87
2023/06/20 03:13:22;;;;;;;12.40;10.60;;;;;;;15.46;100.00;92930.03;2098076;28;20036;-82
2023/06/20 03:14:34;;;;;;;13.57;10.30;;;;;;;15.57;100.00;92937.63;2102689;28;20131;-85
2023/06/20 03:15:45;;;;;;;13.50;10.20;;;;;;;15.62;100.00;92927.00;2099528;28;20025;-83
2023/06/20 03:16:48;;;;;;;17.27;10.82;;;;;;;15.54;100.00;92928.53;2098550;28;20024;-84
2023/06/20 03:18:01;;;;;;;16.88;11.40;;;;;;;15.50;100.00;92936.03;2106611;28;20024;-84
2023/06/20 03:19:11;;;;;;;13.75;10.80;;;;;;;15.54;100.00;92942.00;2108682;28;20028;-87
2023/06/20 03:20:20;;;;;;;15.20;10.30;;;;;;;15.64;100.00;92937.38;2112764;28;20414;-83
2023/06/20 03:21:29;;;;;;;14.00;10.95;;;;;;;15.47;100.00;92936.16;2097698;28;20464;-84
2023/06/20 03:22:37;;;;;;;15.80;11.25;;;;;;;15.48;100.00;92932.25;2094417;28;20029;-82
2023/06/20 03:23:47;;;;;;;17.63;11.23;;;;;;;15.47;100.00;92939.59;2102971;28;20108;-84
2023/06/20 03:24:54;;;;;;;16.20;11.65;;;;;;;15.39;100.00;92929.59;2102099;28;20028;-87
2023/06/20 03:26:06;;;;;;;18.00;10.70;;;;;;;15.39;100.00;92934.97;2098162;28;20037;-82
2023/06/20 03:27:14;;;;;;;17.65;10.75;;;;;;;15.32;100.00;92944.09;2107347;28;20023;-83
2023/06/20 03:28:22;;;;;;;20.88;12.80;;;;;;;15.31;100.00;92937.22;2104127;28;20119;-83
2023/06/20 03:29:29;;;;;;;16.27;11.57;;;;;;;15.40;100.00;92942.59;2091003;28;20025;-82
2023/06/20 03:30:38;;;;;;;14.00;10.93;;;;;;;15.35;100.00;92943.94;2099040;28;20036;-82
2023/06/20 03:31:44;;;;;;;14.18;11.57;;;;;;;15.27;100.00;92936.63;2106021;28;20035;-86
2023/06/20 03:32:53;;;;;;;13.73;11.52;;;;;;;15.41;100.00;92932.56;2096369;28;20115;-82
2023/06/20 03:34:02;;;;;;;15.98;11.20;;;;;;;15.36;100.00;92932.00;2101428;28;20024;-85
2023/06/20 03:35:13;;;;;;;15.55;12.10;;;;;;;15.30;100.00;92928.41;2099162;28;20020;-83
2023/06/20 03:36:23;;;;;;;14.77;11.18;;;;;;;15.39;100.00;92930.34;2107299;28;20047;-81
2023/06/20 03:37:32;;;;;;;13.38;11.07;;;;;;;15.34;100.00;92922.84;2107422;28;20496;-86
2023/06/20 03:38:42;;;;;;;15.10;11.05;;;;;;;15.32;100.00;92927.94;2100282;28;20020;-82
2023/06/20 03:39:47;;;;;;;13.15;11.10;;;;;;;15.15;100.00;92922.13;2093825;28;20029;-86
2023/06/20 03:40:56;;;;;;;16.33;12.45;;;;;;;15.13;100.00;92927.19;2093530;28;20055;-85
2023/06/20 03:42:00;;;;;;;15.90;11.32;;;;;;;15.16;100.00;92923.63;2096715;28;20152;-83
2023/06/20 03:43:08;;;;;;;12.55;11.15;;;;;;;15.21;100.00;92933.03;2093345;28;20369;-84
2023/06/20 03:44:12;;;;;;;15.45;11.48;;;;;;;15.15;100.00;92940.97;2110527;27;20038;-83
2023/06/20 03:45:17;;;;;;;15.40;11.00;;;;;;;15.08;100.00;92941.25;2107531;28;20032;-86
2023/06/20 03:46:24;;;;;;;18.55;11.02;;;;;;;15.12;100.00;92939.16;2097392;28;20024;-85
2023/06/20 03:47:31;;;;;;;13.52;10.90;;;;;;;15.09;100.00;92938.13;2108437;28;20035;-85
2023/06/20 03:48:35;;;;;;;15.52;11.48;;;;;;;15.05;100.00;92942.91;2099134;28;20553;-85
2023/06/20 03:49:44;;;;;;;20.77;12.38;;;;;;;15.06;100.00;92946.38;2100092;28;20026;-83
2023/06/20 03:50:46;;;;;;;14.70;11.38;;;;;;;15.17;100.00;92943.22;2102303;28;20044;-83
2023/06/20 03:51:57;;;;;;;15.23;11.68;;;;;;;15.19;100.00;92932.72;2093005;28;20067;-84
2023/06/20 03:53:04;;;;;;;12.85;10.68;;;;;;;15.21;100.00;92941.13;2103140;28;20055;-83
2023/06/20 03:54:10;;;;;;;13.48;11.73;;;;;;;15.20;100.00;92943.06;2106613;28;20467;-83
2023/06/20 03:55:19;;;;;;;12.65;11.10;;;;;;;15.18;100.00;92929.28;2096574;28;20025;-85
2023/06/20 03:56:25;;;;;;;16.13;12.05;;;;;;;15.16;100.00;92941.72;2085977;28;20717;-86
2023/06/20 03:57:29;;;;;;;14.73;11.27;;;;;;;15.18;100.00;92934.69;2091239;28;20048;-82
2023/06/20 03:58:37;;;;;;;21.33;11.55;;;;;;;15.14;100.00;92933.34;2094261;28;20029;-81
2023/06/20 03:59:42;;;;;;;14.75;11.50;;;;;;;15.20;100.00;92935.00;2096561;28;20032;-83
2023/06/20 04:00:53;;;;;;;17.25;11.32;;;;;;;15.21;100.00;92933.03;2099593;28;20027;-83
2023/06/20 04:01:57;;;;;;;21.38;11.30;;;;;;;15.23;100.00;92931.41;2096075;28;20048;-85
2023/06/20 04:02:59;;;;;;;15.35;10.63;;;;;;;15.24;100.00;92948.31;2099840;28;20025;-86
2023/06/20 04:04:05;;;;;;;12.20;10.90;;;;;;;15.17;100.00;92946.66;2101084;28;20020;-84
2023/06/20 04:05:16;;;;;;;15.93;11.15;;;;;;;15.15;100.00;92953.69;2100013;28;20024;-83
2023/06/20 04:06:29;;;;;;;12.43;9.95;;;;;;;15.14;100.00;92946.78;2094033;28;20016;-85
2023/06/20 04:07:34;;;;;;;13.65;10.15;;;;;;;15.10;100.00;92944.25;2093659;28;20380;-83
2023/06/20 04:08:39;;;;;;;14.35;10.50;;;;;;;15.05;100.00;92942.16;2096903;28;20021;-85
2023/06/20 04:09:51;;;;;;;16.23;10.15;;;;;;;15.13;100.00;92934.53;2091393;28;20029;-85
2023/06/20 04:10:56;;;;;;;13.98;10.60;;;;;;;15.20;100.00;92937.69;2085435;28;20080;-83
2023/06/20 04:12:04;;;;;;;12.43;10.73;;;;;;;15.26;100.00;92937.81;2089584;28;20403;-83
2023/06/20 04:13:10;;;;;;;13.77;10.77;;;;;;;15.34;100.00;92939.03;2098046;28;20090;-84
2023/06/20 04:14:18;;;;;;;17.40;10.23;;;;;;;15.40;100.00;92947.97;2091620;28;20029;-84
2023/06/20 04:15:23;;;;;;;15.02;10.43;;;;;;;15.27;100.00;92940.06;2094976;28;20464;-87
2023/06/20 04:16:30;;;;;;;14.63;10.68;;;;;;;15.25;100.00;92950.53;2095122;28;20039;-84
2023/06/20 04:17:40;;;;;;;12.50;11.20;;;;;;;15.19;100.00;92944.28;2099589;28;20032;-85
2023/06/20 04:18:46;;;;;;;15.48;11.43;;;;;;;15.23;100.00;92944.09;2096109;28;20021;-85
2023/06/20 04:19:51;;;;;;;13.65;10.95;;;;;;;15.20;100.00;92940.38;2098819;28;20036;-82
2023/06/20 04:21:02;;;;;;;12.13;10.63;;;;;;;15.18;100.00;92945.44;2092091;28;20463;-83
2023/06/20 04:22:09;;;;;;;12.13;10.82;;;;;;;15.21;100.00;92949.19;2098570;28;20029;-83
2023/06/20 04:23:15;;;;;;;12.20;10.73;;;;;;;15.22;100.00;92948.75;2099321;28;20291;-82
2023/06/20 04:24:20;;;;;;;15.60;10.85;;;;;;;15.21;100.00;92944.56;2099275;28;20039;-83
2023/06/20 04:25:26;;;;;;;13.40;10.60;;;;;;;15.24;100.00;92948.31;2096088;28;20423;-84
2023/06/20 04:26:36;;;;;;;16.52;10.38;;;;;;;15.21;100.00;92952.63;2094625;28;20024;-83
2023/06/20 04:27:39;;;;;;;16.80;10.50;;;;;;;15.15;100.00;92946.38;2087140;28;20029;-83
2023/06/20 04:28:45;;;;;;;12.95;10.88;;;;;;;15.19;100.00;92946.19;2087846;28;20062;-86
2023/06/20 04:29:57;;;;;;;15.35;11.25;;;;;;;15.18;100.00;92952.78;2090226;28;20024;-85
2023/06/20 04:31:02;;;;;;;14.60;11.18;;;;;;;15.24;100.00;92951.75;2090292;28;20028;-86
2023/06/20 04:32:07;;;;;;;18.70;11.02;;;;;;;15.25;100.00;92947.84;2091100;28;20060;-85
2023/06/20 04:33:11;;;;;;;14.88;11.20;;;;;;;15.30;100.00;92949.19;2098414;28;20054;-84
2023/06/20 04:34:16;;;;;;;14.52;11.02;;;;;;;15.34;100.00;92944.41;2095112;28;20487;-82
2023/06/20 04:35:35;;;;;;;12.38;10.70;;;;;;;15.35;100.00;92945.91;2097773;28;20048;-83
2023/06/20 04:36:40;;;;;;;13.93;10.23;;;;;;;15.36;100.00;92953.53;2092453;28;20113;-85
2023/06/20 04:37:41;;;;;;;15.30;11.80;;;;;;;15.42;100.00;92951.00;2091119;28;20024;-84
2023/06/20 04:38:43;;;;;;;13.02;10.73;;;;;;;15.42;100.00;92952.94;2098330;28;20079;-89
2023/06/20 04:39:44;;;;;;;12.93;11.35;;;;;;;15.46;100.00;92954.28;2108457;28;20027;-85
2023/06/20 04:40:45;;;;;;;12.32;10.95;;;;;;;15.41;100.00;92949.50;2097708;28;20028;-83
2023/06/20 04:41:46;;;;;;;15.45;11.30;;;;;;;15.42;100.00;92956.38;2089979;28;20116;-87
2023/06/20 04:42:47;;;;;;;20.63;12.63;;;;;;;15.57;100.00;92953.81;2089983;28;20032;-82
2023/06/20 04:43:49;;;;;;;15.23;10.93;;;;;;;15.56;100.00;92957.69;2089895;28;20083;-89
2023/06/20 04:44:50;;;;;;;12.40;10.38;;;;;;;15.59;100.00;92960.25;2091410;28;20519;-85
2023/06/20 04:45:52;;;;;;;13.07;11.25;;;;;;;15.52;100.00;92957.09;2105843;28;20020;-85
2023/06/20 04:46:55;;;;;;;13.95;11.38;;;;;;;15.74;100.00;92965.03;2096193;28;20028;-83
2023/06/20 04:47:57;;;;;;;16.40;11.00;;;;;;;15.69;100.00;92961.00;2094134;28;20021;-82
2023/06/20 04:49:04;;;;;;;14.02;11.45;;;;;;;15.61;100.00;92968.63;2089834;28;20028;-84
2023/06/20 04:50:05;;;;;;;18.08;11.07;;;;;;;15.53;100.00;92964.72;2087052;28;20740;-83
2023/06/20 04:51:09;;;;;;;14.15;11.68;;;;;;;15.50;100.00;92965.66;2089453;28;20053;-86
2023/06/20 04:52:10;;;;;;;14.50;11.10;;;;;;;15.60;100.00;92959.03;2087812;28;20086;-82
2023/06/20 04:53:11;;;;;;;14.40;11.93;;;;;;;15.64;100.00;92961.63;2096208;28;20103;-83
2023/06/20 04:54:12;;;;;;;20.73;12.52;;;;;;;15.57;100.00;92959.94;2102995;28;20030;-83
2023/06/20 04:55:14;;;;;;;16.15;12.52;;;;;;;15.63;100.00;92960.09;2110086;28;20020;-86
2023/06/20 04:56:15;;;;;;;17.63;12.32;;;;;;;15.80;100.00;92960.53;2103864;28;20028;-83
2023/06/20 04:57:17;;;;;;;14.32;12.02;;;;;;;15.79;100.00;92967.13;2090497;28;20791;-85
2023/06/20 04:58:18;;;;;;;13.20;11.82;;;;;;;15.77;100.00;92958.75;2105884;28;20396;-84
2023/06/20 04:59:19;;;;;;;14.70;12.57;;;;;;;15.75;100.00;92963.84;2097131;28;20040;-85
2023/06/20 05:00:21;;;;;;;15.07;12.20;;;;;;;15.78;100.00;92965.63;2088310;28;20059;-85
2023/06/20 05:01:22;;;;;;;18.40;13.60;;;;;;;15.81;100.00;92962.03;2085402;28;20017;-85
2023/06/20 05:02:26;;;;;;;16.88;13.07;;;;;;;15.76;100.00;92973.41;2095811;28;20025;-85
2023/06/20 05:03:29;;;;;;;16.05;13.75;;;;;;;15.77;100.00;92962.19;2093019;28;20017;-83
2023/06/20 05:04:31;;;;;;;17.35;14.00;;;;;;;15.83;100.00;92965.75;2087800;28;20040;-80
2023/06/20 05:05:32;;;;;;;16.85;14.15;;;;;;;15.86;100.00;92966.81;2093239;28;20024;-87
2023/06/20 05:06:51;;;;;;;19.92;14.43;;;;;;;15.86;100.00;92966.81;2109213;28;20023;-84
2023/06/20 05:07:54;;;;;;;17.77;13.38;;;;;;;15.93;100.00;92969.19;2099388;28;20077;-83
2023/06/20 05:08:59;;;;;;;16.33;13.48;;;;;;;15.94;100.00;92968.00;2094496;28;20314;-82
2023/06/20 05:10:00;;;;;;;16.05;13.88;;;;;;;16.02;100.00;92968.41;2097127;28;20090;-86
2023/06/20 05:11:03;;;;;;;17.13;14.50;;;;;;;16.00;100.00;92971.56;2091835;28;20586;-85
2023/06/20 05:12:13;;;;;;;18.05;13.93;;;;;;;16.15;100.00;92971.66;2102486;28;20024;-85
2023/06/20 05:13:14;;;;;;;21.05;14.18;;;;;;;16.16;100.00;92973.19;2092190;28;20858;-85
2023/06/20 05:14:15;;;;;;;15.88;14.25;;;;;;;16.13;100.00;92971.38;2103385;28;20039;-87
2023/06/20 05:15:23;;;;;;;17.55;13.90;;;;;;;16.11;100.00;92977.25;2094967;28;20537;-85
2023/06/20 05:16:28;;;;;;;21.15;14.48;;;;;;;16.08;100.00;92974.69;2098210;28;20079;-84
2023/06/20 05:17:29;;;;;;;19.55;14.85;;;;;;;16.14;100.00;92967.47;2095899;28;20050;-84
2023/06/20 05:18:34;;;;;;;20.73;15.30;;;;;;;16.10;100.00;92973.03;2101588;28;20430;-86
2023/06/20 05:19:37;;;;;;;21.58;14.95;;;;;;;16.14;100.00;92969.44;2099539;28;20143;-85
2023/06/20 05:20:38;;;;;;;18.25;15.45;;;;;;;16.19;100.00;92976.91;2090274;28;20488;-84
2023/06/20 05:21:41;;;;;;;18.00;16.05;;;;;;;16.27;100.00;92972.69;2087614;28;20025;-84